Record high temperature 100.8°F Record low temperature -75.5°F Record high gust 121.0 mph Record high average 61.8 mph Record daily rain 2.61 in. Record low windchill -106.6°F Record high barometer 31.889 in. Record low barometer 23.642 in.
Daily high pressure 30.164 in. Daily low pressure 30.016 in. Daily low windchill 42.3°F Daily high heat index 60.6°F Daily high gust speed 5.2 mph SW Daily high average speed 2.3 mph SW
Weather Data
LAST READING AT TIME: 9:40 AM DATE: October 22 2014, time of next update: 09:50 am
Current WeatherDry Current Temperature 60.6°F (15.9°C), Apparent temp 60.7°F
Maximum Temperature (since midnight)60.6°F at: 9:39 AM Minimum Temperature (since midnight)42.3°F at: 6:16 AM
Average windspeed (ten minute)0.0 mph Wind Direction (ten minute)SSE (162°)
Windchill Temperature 60.6°F Maximum Gust (last hour)0.0 mph at: 8:23 AM
Maximum Gust (since midnight)5.2 mph at: 1:20 AM Maximum 1 minute average (since midnight)2.3 mph at: 1:21 AM
Rainfall (last hour)0.00 in. (0.0 mm) Rainfall (since midnight)0.00 in. (0.0 mm) ---
Rainfall This month 1.69 in. (42.9 mm) Rainfall To date this year 9.01 in. (228.9 mm)
Maximum rain per minute (last hour)0.00 in/min Maximum rain per hour (last 6 hours)0.00 in/hour
Yesterdays rainfall 0.00 in DewPoint 46.2°F (Wet Bulb :53.3°F )
Humidity 59 %, Humidex 61.3°F Barometer corrected to msl30.164 in. (1021.5 hPa)
Pressure change +0.01 in. (last hour) Trend (last hour)STEADY
Pressure change (last 12 hours)+0.15 in Pressure change (last 6 hours)+0.12 in

This page is updated from recent data collected by a DAVIS WMII weather station Use the Reload or Refresh facility on your browser to retrieve the latest data.


Click here for the last 24 hour graph
Click here for the last 48 hour graph
Click here for the last 72 hour graph
Click here for the month to date graph


Weather report/warning/Metars

COLORADO SPRINGS MUNI, CO, United States (KCOS) 38-49N 104-43W 1856M
Oct 22, 2014 - 10:54 AM EDT / 2014.10.22 1454 UTC
Wind: from the WSW (250 degrees) at 3 MPH (3 KT):0
Visibility: 10 mile(s):0
Sky conditions: partly cloudy
Temperature: 53.1 F (11.7 C)
Dew Point: 41.0 F (5.0 C)
Relative Humidity: 63%
Pressure (altimeter): 30.16 in. Hg (1021 hPa)
Pressure tendency: 0.04 inches (1.5 hPa) higher than three hours ago
ob: KCOS 221454Z 25003KT 10SM FEW140 SCT200 12/05 A3016 RMK AO2 SLP166 T01170050 53015
cycle: 15
Air Force Academy, CO, United States (KAFF) 38-58N 104-49W 1999M
Oct 22, 2014 - 10:58 AM EDT / 2014.10.22 1458 UTC
Wind: from the NNW (340 degrees) at 2 MPH (2 KT):0
Visibility: 10 mile(s):0
Sky conditions: clear
Temperature: 53.4 F (11.9 C)
Dew Point: 38.7 F (3.7 C)
Relative Humidity: 57%
Pressure (altimeter): 30.16 in. Hg (1021 hPa)
Pressure tendency: 0.04 inches (1.4 hPa) higher than three hours ago
ob: KAFF 221458Z AUTO 34002KT 10SM CLR 12/04 A3016 RMK AO2 SLP168 T01190037 52014
cycle: 15
Fort Carson, CO, United States (KFCS) 38-42N 104-46W 1789M
Oct 22, 2014 - 10:58 AM EDT / 2014.10.22 1458 UTC
Wind: Variable at 1 MPH (1 KT):0
Visibility: 10 mile(s):0
Sky conditions: clear
Temperature: 54.5 F (12.5 C)
Dew Point: 39.0 F (3.9 C)
Relative Humidity: 55%
Pressure (altimeter): 30.14 in. Hg (1020 hPa)
Pressure tendency: 0.05 inches (1.8 hPa) higher than three hours ago
ob: KFCS 221458Z AUTO VRB01KT 10SM CLR 13/04 A3014 RMK AO2 SLP185 T01250039 52018
cycle: 15



The data is logged at two minute intervals, but there is data recorded every minute. Best viewed in 800 x 600 and True colour.

Use the RELOAD facility on your browser to retrieve the latest data.

Click here for a daily update of the averages/extremes to date for the month
Created by "Weather Display" software version 10.37R Build 78 at this start time/date 03:33 am 10/15/2014